Terminal Aerodrome Forecast
Issued by NWS Blacksburg, VA

Current Version | Previous Version | Graphics & Text | Print | Product List | Glossary On
Versions: 1 2 3 4 5 6 7 8 9 10 11 12 13 14 15 16 17 18 19
000
FTUS41 KRNK 260523
TAFBLF
TAF
KBLF 260523Z 2606/2706 24007KT P6SM SCT060
      TEMPO 2608/2612 BKN060
     FM261500 27010G22KT P6SM SCT060
     FM262100 26010KT P6SM VCTS BKN050CB
      TEMPO 2623/2702 3SM -TSRA OVC040CB=

USA.gov is the U.S. government's official web portal to all federal, state and local government web resources and services.